Time;durP1;ratioP1;P1;durP2;ratioP2;P2;SDS_P1;SDS_P2;PMS_P1;PMS_P2;Temp;Humidity;BMP_temperature;BMP_pressure;BME280_temperature;BME280_humidity;BME280_pressure;Samples;Min_cycle;Max_cycle;Signal;HPM_P1;HPM_P2
2023/08/25 00:02:15;;;;;;;12.47;9.60;;;19.50;1.00;;;;;;5114678;28;20498;-52
2023/08/25 00:04:41;;;;;;;12.17;10.97;;;19.50;1.00;;;;;;5114379;28;20199;-50
2023/08/25 00:07:07;;;;;;;11.20;10.10;;;19.50;99.90;;;;;;5114323;28;20475;-51
2023/08/25 00:09:33;;;;;;;11.23;9.97;;;19.60;96.00;;;;;;5114079;28;20870;-51
2023/08/25 00:11:58;;;;;;;11.23;10.03;;;19.60;1.00;;;;;;5114175;28;20175;-52
2023/08/25 00:14:24;;;;;;;10.23;9.20;;;19.60;1.00;;;;;;5114201;28;20212;-52
2023/08/25 00:16:49;;;;;;;13.63;9.90;;;19.60;1.00;;;;;;5113744;28;20187;-50
2023/08/25 00:19:17;;;;;;;11.67;10.47;;;19.60;1.00;;;;;;5114927;28;20193;-51
2023/08/25 00:21:43;;;;;;;12.73;10.60;;;19.60;29.80;;;;;;5114089;28;20230;-51
2023/08/25 00:24:08;;;;;;;14.47;11.37;;;19.70;1.00;;;;;;5114556;28;20425;-51
2023/08/25 00:26:35;;;;;;;13.33;11.20;;;19.70;1.00;;;;;;5114581;28;20178;-51
2023/08/25 00:29:00;;;;;;;12.03;10.87;;;19.70;1.00;;;;;;5114267;28;20211;-51
2023/08/25 00:31:26;;;;;;;12.03;10.83;;;19.70;1.00;;;;;;5114269;28;20896;-50
2023/08/25 00:33:51;;;;;;;13.50;11.33;;;19.80;1.00;;;;;;5114506;28;20176;-50
2023/08/25 00:36:17;;;;;;;14.23;12.20;;;19.80;1.00;;;;;;5114745;28;20187;-51
2023/08/25 00:38:43;;;;;;;16.13;11.50;;;19.80;99.90;;;;;;5113447;28;20300;-51
2023/08/25 00:41:08;;;;;;;11.90;10.70;;;19.70;99.90;;;;;;5114770;28;20191;-51
2023/08/25 00:43:34;;;;;;;12.20;11.00;;;19.80;1.00;;;;;;5114209;28;20632;-51
2023/08/25 00:46:01;;;;;;;14.60;10.97;;;19.80;1.00;;;;;;5113130;28;20191;-51
2023/08/25 00:48:28;;;;;;;12.83;11.53;;;19.80;99.90;;;;;;5113974;28;20241;-51
2023/08/25 00:50:54;;;;;;;15.27;12.37;;;19.80;1.00;;;;;;5114582;28;20420;-50
2023/08/25 00:53:21;;;;;;;15.47;12.40;;;19.80;1.00;;;;;;5114384;28;20751;-51
2023/08/25 00:55:47;;;;;;;12.00;10.90;;;19.80;1.00;;;;;;5112964;28;20418;-49
2023/08/25 00:58:14;;;;;;;14.90;13.23;;;19.80;1.00;;;;;;5111755;28;20510;-49
2023/08/25 01:00:43;;;;;;;13.13;11.43;;;19.80;99.90;;;;;;5112878;28;20417;-49
2023/08/25 01:03:09;;;;;;;16.40;13.90;;;19.80;1.00;;;;;;5113704;28;20414;-50
2023/08/25 01:05:35;;;;;;;13.80;12.50;;;19.80;99.90;;;;;;5113065;28;20501;-50
2023/08/25 01:08:00;;;;;;;18.57;13.20;;;19.80;99.90;;;;;;5112570;28;20252;-51
2023/08/25 01:10:35;;;;;;;15.53;11.90;;;19.80;1.00;;;;;;5113795;28;20233;-53
2023/08/25 01:13:12;;;;;;;15.83;13.10;;;19.80;99.90;;;;;;5114467;28;20180;-52
2023/08/25 01:15:42;;;;;;;14.67;13.17;;;19.80;44.40;;;;;;5114112;28;20891;-51
2023/08/25 01:18:32;;;;;;;14.63;12.87;;;20.00;90.00;;;;;;5114398;28;20447;-51
2023/08/25 01:20:59;;;;;;;16.60;13.70;;;20.10;1.00;;;;;;5114383;28;20403;-51
2023/08/25 01:23:59;;;;;;;16.80;13.23;;;20.20;99.90;;;;;;5113643;28;20515;-51
2023/08/25 01:26:27;;;;;;;22.00;14.10;;;20.20;1.00;;;;;;5069803;28;20425;-51
2023/08/25 01:28:52;;;;;;;16.87;14.47;;;20.20;99.90;;;;;;5113876;28;20422;-51
2023/08/25 01:31:21;;;;;;;19.17;13.77;;;20.30;99.90;;;;;;5113444;28;20424;-50
2023/08/25 01:33:48;;;;;;;14.67;13.00;;;20.40;99.90;;;;;;5113872;28;20192;-50
2023/08/25 01:36:35;;;;;;;16.17;14.03;;;20.40;1.00;;;;;;5114029;28;20489;-51
2023/08/25 01:39:08;;;;;;;16.30;14.67;;;20.40;1.00;;;;;;5114019;28;20450;-51
2023/08/25 01:41:52;;;;;;;15.90;14.20;;;20.40;99.90;;;;;;5114139;28;20506;-52
2023/08/25 01:44:19;;;;;;;16.67;14.60;;;20.40;1.00;;;;;;5113675;28;20413;-51
2023/08/25 01:46:50;;;;;;;18.10;14.10;;;20.40;99.90;;;;;;5113738;28;20414;-51
2023/08/25 01:49:17;;;;;;;22.03;15.60;;;20.30;99.90;;;;;;5113859;28;20457;-52
2023/08/25 01:51:44;;;;;;;20.00;15.43;;;20.40;1.00;;;;;;5098776;28;20421;-50
2023/08/25 01:54:10;;;;;;;17.60;15.40;;;20.40;1.00;;;;;;5117365;28;20402;-51
2023/08/25 01:56:36;;;;;;;19.50;15.73;;;20.40;1.00;;;;;;5117642;28;20405;-51
2023/08/25 01:59:02;;;;;;;18.40;15.90;;;20.30;1.00;;;;;;5117345;28;20934;-49
2023/08/25 02:01:30;;;;;;;20.07;15.80;;;20.30;15.10;;;;;;5117335;28;20188;-49
2023/08/25 02:03:56;;;;;;;19.77;16.57;;;20.30;99.90;;;;;;5117358;28;20198;-50
2023/08/25 02:06:22;;;;;;;22.13;17.03;;;20.30;99.90;;;;;;5116734;28;20506;-51
2023/08/25 02:08:47;;;;;;;19.43;16.00;;;20.30;1.00;;;;;;5082050;28;20187;-52
2023/08/25 02:11:13;;;;;;;24.70;17.47;;;20.20;99.90;;;;;;5117150;28;20175;-52
2023/08/25 02:13:38;;;;;;;23.10;18.30;;;20.20;99.90;;;;;;5117294;28;20178;-51
2023/08/25 02:16:04;;;;;;;26.03;20.20;;;20.10;6.10;;;;;;5116910;28;20620;-51
2023/08/25 02:18:29;;;;;;;25.13;19.60;;;20.10;99.90;;;;;;5117110;28;20260;-50
2023/08/25 02:20:56;;;;;;;24.97;18.80;;;20.10;1.00;;;;;;5116812;28;20219;-51
2023/08/25 02:23:22;;;;;;;20.40;18.17;;;20.10;99.90;;;;;;5116707;28;20247;-51
2023/08/25 02:25:47;;;;;;;25.83;18.60;;;20.00;99.90;;;;;;5116842;28;20416;-50
2023/08/25 02:28:13;;;;;;;24.33;20.23;;;19.90;99.90;;;;;;5117115;28;20456;-51
2023/08/25 02:30:39;;;;;;;23.93;21.33;;;19.90;99.90;;;;;;5116770;28;20255;-51
2023/08/25 02:33:04;;;;;;;25.47;20.53;;;19.90;1.00;;;;;;5116577;28;20184;-50
2023/08/25 02:35:30;;;;;;;23.33;20.77;;;19.90;1.00;;;;;;5116573;28;20184;-50
2023/08/25 02:38:04;;;;;;;23.87;20.60;;;19.90;99.90;;;;;;5116131;28;20645;-51
2023/08/25 02:40:30;;;;;;;23.47;21.00;;;19.90;99.90;;;;;;5116525;28;20180;-51
2023/08/25 02:42:59;;;;;;;29.13;22.90;;;19.90;99.90;;;;;;5116837;28;20926;-53
2023/08/25 02:45:25;;;;;;;28.80;21.83;;;19.90;1.00;;;;;;5099012;28;20493;-50
2023/08/25 02:47:51;;;;;;;30.23;24.10;;;19.90;1.00;;;;;;5116345;28;20414;-52
2023/08/25 02:50:18;;;;;;;25.73;22.70;;;19.80;99.90;;;;;;5116076;28;20410;-51
2023/08/25 02:52:43;;;;;;;28.50;23.53;;;19.90;99.90;;;;;;5116258;28;20435;-50
2023/08/25 02:55:11;;;;;;;34.00;22.83;;;19.90;99.90;;;;;;5115866;28;20409;-52
2023/08/25 02:57:37;;;;;;;27.07;22.77;;;19.90;12.80;;;;;;5116040;28;20287;-51
2023/08/25 03:00:04;;;;;;;30.90;22.60;;;19.80;99.90;;;;;;5116245;28;20417;-51
2023/08/25 03:02:30;;;;;;;30.30;24.30;;;19.80;1.00;;;;;;5115162;28;20622;-51
2023/08/25 03:04:56;;;;;;;34.40;23.83;;;19.80;99.90;;;;;;5116097;28;20898;-50
2023/08/25 03:07:21;;;;;;;33.50;25.83;;;19.80;99.90;;;;;;5115752;28;20416;-51
2023/08/25 03:09:47;;;;;;;28.43;23.33;;;19.70;17.60;;;;;;5115720;28;20530;-50
2023/08/25 03:12:12;;;;;;;27.70;23.87;;;19.70;29.30;;;;;;5115772;28;20270;-51
2023/08/25 03:14:38;;;;;;;34.53;24.47;;;19.70;1.00;;;;;;5115890;28;20184;-51
2023/08/25 03:17:04;;;;;;;28.97;25.20;;;19.70;1.00;;;;;;5097576;28;20701;-51
2023/08/25 03:19:29;;;;;;;29.30;25.27;;;19.70;1.00;;;;;;5116054;28;20198;-52
2023/08/25 03:21:55;;;;;;;28.07;23.27;;;19.60;99.90;;;;;;5115377;28;20684;-50
2023/08/25 03:24:20;;;;;;;29.17;24.60;;;19.60;99.90;;;;;;5115744;28;20175;-52
2023/08/25 03:26:46;;;;;;;32.43;23.70;;;19.60;1.00;;;;;;5115241;28;20238;-52
2023/08/25 03:29:11;;;;;;;27.83;24.70;;;19.50;1.00;;;;;;5115230;28;20195;-51
2023/08/25 03:31:38;;;;;;;29.07;24.53;;;19.50;1.00;;;;;;5115565;28;20186;-51
2023/08/25 03:34:03;;;;;;;31.40;25.20;;;19.50;1.00;;;;;;5115506;28;20176;-53
2023/08/25 03:36:30;;;;;;;32.13;26.03;;;19.40;1.00;;;;;;5115529;28;20418;-52
2023/08/25 03:38:56;;;;;;;33.80;25.63;;;19.40;1.00;;;;;;5115470;28;20268;-50
2023/08/25 03:41:21;;;;;;;31.73;26.53;;;19.40;26.80;;;;;;5115531;28;20423;-51
2023/08/25 03:43:47;;;;;;;37.50;28.03;;;19.40;88.80;;;;;;5115464;28;20618;-51
2023/08/25 03:46:13;;;;;;;32.20;27.13;;;19.40;86.10;;;;;;5115148;28;20696;-52
2023/08/25 03:48:38;;;;;;;36.40;26.63;;;19.40;68.40;;;;;;5115152;28;20193;-51
2023/08/25 03:51:04;;;;;;;34.27;27.00;;;19.40;99.90;;;;;;5096938;28;20280;-52
2023/08/25 03:53:30;;;;;;;32.30;26.83;;;19.40;98.90;;;;;;5114692;28;20183;-50
2023/08/25 03:55:55;;;;;;;34.87;27.10;;;19.30;99.90;;;;;;5115246;28;20279;-51
2023/08/25 03:58:21;;;;;;;34.57;28.97;;;19.30;99.90;;;;;;5115341;28;20211;-50
2023/08/25 04:00:54;;;;;;;38.00;28.40;;;19.30;99.90;;;;;;5114671;28;20194;-50
2023/08/25 04:03:19;;;;;;;35.17;27.00;;;19.20;99.90;;;;;;5115068;28;20415;-50
2023/08/25 04:05:45;;;;;;;45.53;27.70;;;19.30;99.90;;;;;;5114767;28;20409;-49
2023/08/25 04:08:11;;;;;;;42.53;30.17;;;19.30;99.90;;;;;;5115027;28;20265;-51
2023/08/25 04:10:37;;;;;;;34.37;28.40;;;19.30;99.90;;;;;;5114875;28;20981;-51
2023/08/25 04:13:03;;;;;;;37.03;29.30;;;19.30;99.90;;;;;;5114724;28;20183;-52
2023/08/25 04:15:28;;;;;;;39.80;29.90;;;19.20;99.90;;;;;;5114601;28;20557;-51
2023/08/25 04:17:54;;;;;;;44.73;31.10;;;19.10;99.90;;;;;;5113541;28;20280;-50
2023/08/25 04:20:20;;;;;;;37.30;29.10;;;19.20;99.90;;;;;;5096490;28;20429;-51
2023/08/25 04:22:45;;;;;;;39.53;30.13;;;19.20;99.90;;;;;;5114059;28;20226;-50
2023/08/25 04:25:11;;;;;;;37.80;30.30;;;19.20;99.90;;;;;;5096277;28;20210;-50
2023/08/25 04:27:37;;;;;;;37.83;29.93;;;19.10;99.90;;;;;;5114244;28;20179;-50
2023/08/25 04:30:03;;;;;;;44.37;29.87;;;19.20;99.90;;;;;;5114483;28;20175;-50
2023/08/25 04:32:29;;;;;;;39.00;29.40;;;19.20;99.90;;;;;;5114438;28;20211;-52
2023/08/25 04:34:55;;;;;;;45.30;31.60;;;19.10;99.90;;;;;;5114196;28;20917;-51
2023/08/25 04:37:20;;;;;;;36.70;29.90;;;19.20;99.90;;;;;;5114031;28;20719;-50
2023/08/25 04:39:46;;;;;;;44.10;30.90;;;19.10;99.90;;;;;;5114205;28;20179;-50
2023/08/25 04:42:11;;;;;;;40.97;31.23;;;19.20;99.90;;;;;;5114059;28;20266;-50
2023/08/25 04:44:37;;;;;;;39.63;31.47;;;19.20;99.90;;;;;;5114425;28;20238;-50
2023/08/25 04:47:03;;;;;;;40.70;30.77;;;19.10;99.90;;;;;;5114375;28;20201;-51
2023/08/25 04:49:28;;;;;;;40.07;30.13;;;19.20;99.90;;;;;;5114087;28;20207;-51
2023/08/25 04:51:54;;;;;;;36.10;28.30;;;19.20;99.90;;;;;;5113887;28;20178;-51
2023/08/25 04:54:19;;;;;;;38.20;28.80;;;19.20;99.90;;;;;;5114226;28;20205;-50
2023/08/25 04:56:45;;;;;;;42.67;31.10;;;19.20;99.90;;;;;;5114071;28;20269;-50
2023/08/25 04:59:11;;;;;;;47.00;30.07;;;19.20;99.90;;;;;;5113967;28;20214;-50
2023/08/25 05:01:37;;;;;;;37.47;29.13;;;19.20;99.90;;;;;;5114339;28;20183;-50
2023/08/25 05:04:02;;;;;;;40.60;31.03;;;19.30;99.90;;;;;;5114336;28;20742;-50
2023/08/25 05:06:28;;;;;;;43.83;32.07;;;19.30;99.90;;;;;;5114075;28;20183;-51
2023/08/25 05:08:54;;;;;;;37.60;28.93;;;19.30;99.90;;;;;;5114123;28;20186;-51
2023/08/25 05:11:21;;;;;;;39.63;30.37;;;19.30;99.90;;;;;;5114123;28;20671;-51
2023/08/25 05:13:46;;;;;;;45.00;31.37;;;19.30;99.90;;;;;;5114223;28;20404;-51
2023/08/25 05:16:15;;;;;;;49.07;33.07;;;19.40;99.90;;;;;;5113944;28;20760;-51
2023/08/25 05:18:40;;;;;;;41.70;30.17;;;19.40;99.90;;;;;;5114176;28;20206;-51
2023/08/25 05:21:06;;;;;;;41.97;32.97;;;19.40;99.90;;;;;;5113919;28;20467;-51
2023/08/25 05:23:32;;;;;;;42.77;33.07;;;19.50;99.90;;;;;;5113752;28;20235;-51
2023/08/25 05:25:57;;;;;;;57.53;33.87;;;19.50;99.90;;;;;;5116090;28;20251;-51
2023/08/25 05:28:23;;;;;;;43.63;32.70;;;19.50;99.90;;;;;;5118282;28;20194;-50
2023/08/25 05:30:49;;;;;;;44.40;32.90;;;19.50;99.90;;;;;;5117419;28;20179;-50
2023/08/25 05:33:15;;;;;;;44.97;32.37;;;19.60;99.90;;;;;;5117825;28;20179;-51
2023/08/25 05:35:41;;;;;;;42.27;31.87;;;19.60;99.90;;;;;;5117650;28;20184;-50
2023/08/25 05:38:07;;;;;;;49.43;34.00;;;19.60;99.90;;;;;;5117741;28;20251;-50
2023/08/25 05:40:33;;;;;;;40.70;31.10;;;19.70;99.90;;;;;;5117528;28;20480;-50
2023/08/25 05:42:58;;;;;;;46.43;32.90;;;19.70;99.90;;;;;;5117613;28;20176;-51
2023/08/25 05:45:24;;;;;;;44.83;31.47;;;19.70;99.90;;;;;;5117470;28;20191;-50
2023/08/25 05:47:50;;;;;;;42.33;32.50;;;19.80;87.90;;;;;;5117169;28;20183;-51
2023/08/25 05:50:15;;;;;;;44.20;31.10;;;19.90;22.00;;;;;;5116628;28;20175;-52
2023/08/25 05:52:44;;;;;;;45.00;32.93;;;19.90;1.00;;;;;;5117099;28;20595;-50
2023/08/25 05:55:13;;;;;;;41.10;30.13;;;19.90;1.00;;;;;;5117768;28;20253;-50
2023/08/25 05:57:39;;;;;;;54.27;31.87;;;19.90;1.00;;;;;;5116841;28;20487;-51
2023/08/25 06:00:06;;;;;;;47.67;32.93;;;20.10;1.00;;;;;;5117286;28;20506;-50
2023/08/25 06:02:32;;;;;;;45.33;30.50;;;20.10;1.00;;;;;;5116756;28;20513;-51
2023/08/25 06:04:58;;;;;;;44.43;34.00;;;20.20;1.00;;;;;;5117303;28;20746;-50
2023/08/25 06:07:24;;;;;;;43.90;31.90;;;20.30;99.90;;;;;;5116868;28;20421;-50
2023/08/25 06:09:49;;;;;;;51.47;36.90;;;20.20;72.90;;;;;;5116987;28;20410;-50
2023/08/25 06:12:15;;;;;;;45.70;33.53;;;20.20;1.00;;;;;;5116822;28;20225;-51
2023/08/25 06:14:41;;;;;;;49.73;34.70;;;20.20;1.00;;;;;;5116807;28;20189;-50
2023/08/25 06:17:06;;;;;;;47.50;35.10;;;20.30;99.90;;;;;;5117021;28;20180;-50
2023/08/25 06:19:33;;;;;;;47.43;35.57;;;20.20;99.90;;;;;;5116767;28;20198;-50
2023/08/25 06:21:58;;;;;;;49.60;35.53;;;20.30;1.00;;;;;;5116591;28;20235;-50
2023/08/25 06:24:25;;;;;;;45.80;35.30;;;20.30;1.00;;;;;;5116779;28;20517;-50
2023/08/25 06:26:51;;;;;;;52.63;32.63;;;20.30;99.90;;;;;;5116824;28;20207;-50
2023/08/25 06:29:17;;;;;;;43.53;33.00;;;20.50;99.90;;;;;;5116722;28;20902;-50
2023/08/25 06:31:42;;;;;;;47.60;33.77;;;20.60;99.90;;;;;;5116839;28;20172;-50
2023/08/25 06:34:08;;;;;;;48.57;35.13;;;20.70;17.60;;;;;;5117084;28;20181;-50
2023/08/25 06:36:34;;;;;;;41.33;32.57;;;20.70;46.50;;;;;;5115664;28;20256;-49
2023/08/25 06:39:00;;;;;;;45.07;35.00;;;20.70;1.00;;;;;;5116860;28;20738;-50
2023/08/25 06:41:25;;;;;;;50.27;34.07;;;20.80;16.60;;;;;;5116269;28;20540;-51
2023/08/25 06:43:51;;;;;;;42.43;33.30;;;20.80;99.90;;;;;;5116439;28;20418;-50
2023/08/25 06:46:17;;;;;;;40.50;32.40;;;21.00;99.90;;;;;;5116444;28;20565;-49
2023/08/25 06:48:43;;;;;;;42.43;32.70;;;21.10;99.90;;;;;;5116202;28;20990;-49
2023/08/25 06:51:09;;;;;;;38.20;29.00;;;21.20;1.00;;;;;;5116378;28;20288;-50
2023/08/25 06:53:34;;;;;;;40.97;30.60;;;21.30;1.00;;;;;;5116256;28;20446;-49
2023/08/25 06:56:00;;;;;;;42.33;28.30;;;21.40;99.90;;;;;;5116032;28;20173;-50
2023/08/25 06:58:25;;;;;;;38.57;28.37;;;21.30;46.60;;;;;;5116210;28;20209;-49
2023/08/25 07:00:52;;;;;;;43.50;31.00;;;21.30;1.00;;;;;;5116061;28;20185;-50
2023/08/25 07:03:18;;;;;;;40.83;30.63;;;21.30;23.00;;;;;;5116402;28;20177;-50
2023/08/25 07:05:43;;;;;;;37.50;26.43;;;21.30;1.00;;;;;;5116052;28;20429;-49
2023/08/25 07:08:09;;;;;;;40.97;28.53;;;21.20;1.00;;;;;;5116256;28;20225;-50
2023/08/25 07:10:35;;;;;;;32.40;26.20;;;21.20;1.00;;;;;;5115890;28;20667;-50
2023/08/25 07:13:01;;;;;;;44.73;29.97;;;21.20;61.90;;;;;;5116512;28;20572;-49
2023/08/25 07:15:27;;;;;;;40.30;29.17;;;21.20;1.00;;;;;;5115969;28;20414;-50
2023/08/25 07:17:52;;;;;;;36.13;26.57;;;21.10;1.00;;;;;;5115521;28;20200;-51
2023/08/25 07:20:19;;;;;;;29.83;23.60;;;21.10;56.90;;;;;;5115664;28;20177;-49
2023/08/25 07:22:46;;;;;;;42.43;27.60;;;21.20;99.90;;;;;;5115742;28;20232;-50
2023/08/25 07:25:11;;;;;;;39.80;28.20;;;21.20;71.00;;;;;;5115692;28;20418;-51
2023/08/25 07:27:37;;;;;;;32.23;24.77;;;21.10;1.00;;;;;;5115845;28;20414;-50
2023/08/25 07:30:04;;;;;;;34.10;27.13;;;21.10;99.90;;;;;;5115297;28;20607;-49
2023/08/25 07:32:30;;;;;;;30.70;24.20;;;21.10;99.90;;;;;;5115218;28;20180;-50
2023/08/25 07:34:57;;;;;;;33.03;25.87;;;21.10;98.50;;;;;;5115437;28;20438;-50
2023/08/25 07:37:23;;;;;;;35.80;24.67;;;21.10;99.90;;;;;;5115418;28;20295;-50
2023/08/25 07:39:53;;;;;;;33.10;24.13;;;21.10;99.90;;;;;;5115315;28;20453;-50
2023/08/25 07:42:19;;;;;;;34.30;24.67;;;21.00;99.90;;;;;;5115203;28;20191;-50
2023/08/25 07:44:47;;;;;;;42.63;26.90;;;21.00;99.90;;;;;;5115838;28;20442;-49
2023/08/25 07:47:13;;;;;;;40.13;28.27;;;21.10;99.90;;;;;;5115269;28;20418;-50
2023/08/25 07:49:38;;;;;;;38.03;27.30;;;21.30;1.00;;;;;;5114899;28;20460;-50
2023/08/25 07:52:04;;;;;;;36.03;26.07;;;21.50;99.90;;;;;;5115242;28;20510;-50
2023/08/25 07:54:29;;;;;;;33.77;24.20;;;21.70;99.90;;;;;;5114905;28;20248;-49
2023/08/25 07:56:55;;;;;;;32.40;24.63;;;22.10;1.00;;;;;;5115095;28;20177;-50
2023/08/25 07:59:22;;;;;;;33.37;24.17;;;22.50;99.90;;;;;;5114990;28;20216;-51
2023/08/25 08:01:50;;;;;;;35.53;25.47;;;22.80;99.90;;;;;;5115230;28;20185;-51
2023/08/25 08:04:15;;;;;;;35.30;25.53;;;22.90;99.90;;;;;;5114965;28;20407;-50
2023/08/25 08:06:41;;;;;;;37.63;28.07;;;22.80;99.90;;;;;;5114872;28;20463;-51
2023/08/25 08:09:06;;;;;;;36.33;26.80;;;22.80;99.90;;;;;;5114703;28;20233;-50
2023/08/25 08:11:35;;;;;;;38.17;28.67;;;22.80;99.90;;;;;;5115019;28;20202;-50
2023/08/25 08:14:02;;;;;;;40.33;28.03;;;22.90;99.90;;;;;;5114886;28;20208;-50
2023/08/25 08:16:28;;;;;;;35.23;26.37;;;23.00;99.90;;;;;;5114590;28;20426;-50
2023/08/25 08:18:54;;;;;;;31.53;25.30;;;23.30;56.10;;;;;;5114994;28;20458;-50
2023/08/25 08:21:20;;;;;;;30.07;23.07;;;23.50;61.60;;;;;;5114360;28;20406;-50
2023/08/25 08:23:45;;;;;;;31.77;22.10;;;23.60;28.30;;;;;;5115045;28;20208;-50
2023/08/25 08:26:11;;;;;;;26.43;20.87;;;23.70;1.00;;;;;;5114592;28;20177;-50
2023/08/25 08:28:36;;;;;;;28.33;22.50;;;23.50;1.00;;;;;;5114594;28;20177;-50
2023/08/25 08:31:05;;;;;;;27.63;20.13;;;23.50;1.00;;;;;;5114850;28;20190;-50
2023/08/25 08:33:31;;;;;;;26.80;21.00;;;23.20;1.00;;;;;;5114780;28;20180;-50
2023/08/25 08:35:57;;;;;;;28.80;21.50;;;23.20;9.50;;;;;;5114273;28;20745;-49
2023/08/25 08:38:23;;;;;;;25.13;20.33;;;23.10;16.70;;;;;;5114386;28;20495;-49
2023/08/25 08:40:49;;;;;;;33.57;21.80;;;23.10;22.30;;;;;;5114250;28;20173;-49
2023/08/25 08:43:17;;;;;;;32.83;23.67;;;22.90;17.50;;;;;;5114052;28;20221;-49
2023/08/25 08:45:44;;;;;;;28.20;21.20;;;22.80;26.20;;;;;;5114303;28;20439;-51
2023/08/25 08:48:12;;;;;;;27.77;22.00;;;22.60;91.60;;;;;;5114208;28;20933;-50
2023/08/25 08:50:38;;;;;;;30.80;22.23;;;22.70;99.90;;;;;;5114362;28;20410;-51
2023/08/25 08:53:05;;;;;;;35.97;21.57;;;22.90;99.90;;;;;;5114851;28;20417;-51
2023/08/25 08:55:33;;;;;;;34.03;22.43;;;23.00;45.00;;;;;;5114259;28;20406;-51
2023/08/25 08:57:58;;;;;;;31.93;22.80;;;23.00;18.90;;;;;;5114102;28;20458;-50
2023/08/25 09:00:24;;;;;;;25.40;21.00;;;23.10;4.40;;;;;;5115284;28;20422;-51
2023/08/25 09:02:53;;;;;;;32.20;22.40;;;23.20;28.50;;;;;;5118579;28;20165;-51
2023/08/25 09:05:30;;;;;;;29.57;23.53;;;23.40;1.00;;;;;;5118260;28;20427;-50
2023/08/25 09:08:07;;;;;;;29.43;22.40;;;23.60;1.00;;;;;;5118362;28;20396;-51
2023/08/25 09:10:33;;;;;;;26.33;20.00;;;23.70;1.00;;;;;;5118414;28;20499;-50
2023/08/25 09:12:58;;;;;;;26.27;20.17;;;23.60;1.00;;;;;;5118197;28;20852;-51
2023/08/25 09:15:31;;;;;;;23.30;20.33;;;23.50;1.00;;;;;;5118229;28;20271;-49
2023/08/25 09:18:04;;;;;;;25.60;19.33;;;23.30;1.00;;;;;;5118560;28;20631;-50
2023/08/25 09:20:34;;;;;;;25.73;19.30;;;23.30;1.00;;;;;;5118142;28;20406;-49
2023/08/25 09:23:03;;;;;;;23.73;19.27;;;23.20;1.00;;;;;;5117579;28;20801;-51
2023/08/25 09:25:30;;;;;;;26.60;20.97;;;23.10;1.00;;;;;;5099370;28;20406;-51
2023/08/25 09:27:57;;;;;;;29.63;21.40;;;23.00;1.00;;;;;;5118170;28;20410;-51
2023/08/25 09:30:33;;;;;;;28.90;19.00;;;22.90;12.30;;;;;;5117918;28;20421;-49
2023/08/25 09:33:13;;;;;;;22.70;18.37;;;22.90;19.90;;;;;;5118278;28;20406;-50
2023/08/25 09:35:39;;;;;;;23.87;19.87;;;22.80;26.60;;;;;;5117754;28;20444;-51
2023/08/25 09:38:05;;;;;;;25.37;18.90;;;22.80;23.20;;;;;;5116120;28;20938;-50
2023/08/25 09:40:31;;;;;;;24.50;20.40;;;22.70;43.90;;;;;;5116480;28;20614;-49
2023/08/25 09:43:01;;;;;;;24.13;17.90;;;22.70;20.30;;;;;;5117219;28;20857;-50
2023/08/25 09:45:31;;;;;;;26.40;18.17;;;22.80;34.80;;;;;;5117638;28;20188;-50
2023/08/25 09:48:10;;;;;;;21.13;17.73;;;22.90;19.50;;;;;;5117504;28;20422;-51
2023/08/25 09:50:41;;;;;;;27.47;21.20;;;23.10;12.70;;;;;;5117861;28;20465;-49
2023/08/25 09:53:07;;;;;;;23.50;17.80;;;23.30;1.00;;;;;;5117687;28;20402;-50
2023/08/25 09:55:37;;;;;;;25.23;17.80;;;23.40;1.00;;;;;;5117489;28;20787;-49
2023/08/25 09:58:08;;;;;;;28.13;18.90;;;23.50;1.00;;;;;;5115948;28;20505;-50
2023/08/25 10:00:35;;;;;;;29.70;19.43;;;23.60;1.00;;;;;;5117373;28;20544;-51
2023/08/25 10:03:08;;;;;;;26.40;18.97;;;23.50;1.00;;;;;;5098992;28;20421;-51
2023/08/25 10:05:36;;;;;;;27.50;20.10;;;23.40;1.00;;;;;;5099105;28;20427;-51
2023/08/25 10:08:03;;;;;;;22.77;18.20;;;23.20;1.00;;;;;;5098925;28;20435;-51
2023/08/25 10:10:37;;;;;;;27.97;18.90;;;23.10;1.00;;;;;;5117101;28;20521;-52
2023/08/25 10:13:04;;;;;;;35.70;19.43;;;23.10;1.00;;;;;;5097237;28;20419;-52
2023/08/25 10:15:31;;;;;;;25.90;18.50;;;23.10;1.00;;;;;;5098507;28;20427;-50
2023/08/25 10:18:03;;;;;;;21.60;17.27;;;23.00;1.00;;;;;;5116706;28;20473;-51
2023/08/25 10:20:34;;;;;;;30.60;18.50;;;22.90;1.00;;;;;;5116834;28;20871;-51
2023/08/25 10:23:04;;;;;;;20.97;16.90;;;22.90;1.00;;;;;;5116134;28;20780;-49
2023/08/25 10:25:30;;;;;;;23.97;16.50;;;22.90;1.00;;;;;;5116515;28;20410;-49
2023/08/25 10:27:57;;;;;;;21.83;16.67;;;22.80;2.70;;;;;;5116651;28;20429;-49
2023/08/25 10:30:24;;;;;;;25.77;18.33;;;22.70;19.50;;;;;;5116273;28;20415;-51
2023/08/25 10:33:05;;;;;;;27.37;19.40;;;22.80;22.30;;;;;;5116533;28;20914;-51
2023/08/25 10:35:47;;;;;;;23.00;16.80;;;22.90;16.10;;;;;;5116422;28;20877;-51
2023/08/25 10:38:18;;;;;;;25.37;18.47;;;22.90;24.60;;;;;;5116376;28;20488;-50
2023/08/25 10:40:55;;;;;;;24.60;18.53;;;22.90;1.00;;;;;;5116491;28;20978;-51
2023/08/25 10:43:51;;;;;;;22.77;18.10;;;22.90;1.00;;;;;;5119115;28;20426;-50
2023/08/25 10:46:19;;;;;;;25.83;17.77;;;22.90;1.00;;;;;;5114512;28;20429;-50
2023/08/25 10:48:48;;;;;;;25.50;18.70;;;22.80;1.00;;;;;;5116356;28;20422;-50
2023/08/25 10:51:19;;;;;;;30.17;17.43;;;22.70;5.30;;;;;;5116692;28;20410;-50
2023/08/25 10:53:52;;;;;;;25.23;17.90;;;22.70;15.90;;;;;;5115038;28;20437;-49
2023/08/25 10:56:18;;;;;;;26.27;19.83;;;22.70;54.90;;;;;;5116289;28;20479;-50
2023/08/25 10:58:59;;;;;;;26.53;20.60;;;22.70;15.00;;;;;;5116259;28;20495;-51
2023/08/25 11:01:36;;;;;;;32.27;19.67;;;22.70;18.40;;;;;;5114664;28;20667;-51
2023/08/25 11:04:07;;;;;;;23.23;18.30;;;22.70;8.20;;;;;;5116122;28;20403;-51
2023/08/25 11:06:36;;;;;;;25.70;17.93;;;22.70;57.30;;;;;;5116033;28;20403;-50
2023/08/25 11:09:01;;;;;;;25.07;19.23;;;22.70;16.40;;;;;;5116247;28;20418;-51
2023/08/25 11:11:29;;;;;;;26.77;19.17;;;22.70;19.80;;;;;;5116174;28;20418;-50
2023/08/25 11:13:56;;;;;;;26.67;18.07;;;22.70;9.60;;;;;;5117795;28;20177;-50
2023/08/25 11:16:21;;;;;;;19.90;15.97;;;22.80;14.30;;;;;;5097442;28;20422;-50
2023/08/25 11:18:47;;;;;;;25.00;17.50;;;22.90;20.90;;;;;;5115781;28;20511;-50
2023/08/25 11:21:14;;;;;;;25.30;16.00;;;23.00;1.00;;;;;;5114660;28;20572;-50
2023/08/25 11:23:47;;;;;;;20.23;17.00;;;23.00;1.00;;;;;;5115489;28;20226;-51
2023/08/25 11:26:18;;;;;;;26.13;17.13;;;23.00;1.00;;;;;;5114475;28;20923;-50
2023/08/25 11:28:48;;;;;;;19.97;16.40;;;23.00;1.00;;;;;;5115897;28;20761;-50
2023/08/25 11:31:14;;;;;;;21.63;16.70;;;23.00;1.00;;;;;;5116012;28;20406;-50
2023/08/25 11:33:40;;;;;;;22.23;16.33;;;23.00;1.00;;;;;;5115893;28;20906;-49
2023/08/25 11:36:06;;;;;;;21.43;16.77;;;22.90;1.00;;;;;;5115925;28;20188;-49
2023/08/25 11:38:32;;;;;;;23.10;17.50;;;22.90;1.00;;;;;;5097192;28;20581;-50
2023/08/25 11:40:58;;;;;;;21.50;17.57;;;22.70;1.00;;;;;;5115560;28;20527;-50
2023/08/25 11:43:34;;;;;;;25.90;15.70;;;22.60;17.80;;;;;;5114828;28;20592;-50
2023/08/25 11:46:00;;;;;;;21.90;14.70;;;22.50;15.70;;;;;;5115220;28;20894;-51
2023/08/25 11:48:26;;;;;;;25.60;17.23;;;22.40;37.90;;;;;;5115541;28;20417;-50
2023/08/25 11:50:51;;;;;;;20.00;15.27;;;22.30;80.20;;;;;;5116253;28;20337;-50
2023/08/25 11:53:17;;;;;;;26.17;17.03;;;22.30;99.90;;;;;;5114407;28;20177;-50
2023/08/25 11:56:03;;;;;;;25.93;18.13;;;22.30;99.90;;;;;;5115517;28;20264;-51
2023/08/25 11:58:34;;;;;;;22.87;18.07;;;22.20;99.90;;;;;;5096512;28;20469;-50
2023/08/25 12:01:10;;;;;;;25.40;18.23;;;22.20;99.90;;;;;;5115169;28;20486;-50
2023/08/25 12:03:37;;;;;;;27.90;19.40;;;22.20;99.90;;;;;;5114838;28;20410;-50
2023/08/25 12:06:10;;;;;;;23.80;17.60;;;22.20;99.90;;;;;;5114936;28;20425;-50
2023/08/25 12:08:39;;;;;;;28.80;19.33;;;22.20;99.90;;;;;;5114883;28;20445;-50
2023/08/25 12:11:06;;;;;;;23.90;18.23;;;22.10;99.90;;;;;;5114932;28;20420;-50
2023/08/25 12:13:35;;;;;;;24.70;18.33;;;22.20;99.90;;;;;;5114512;28;20418;-50
2023/08/25 12:16:02;;;;;;;20.27;17.17;;;22.20;99.90;;;;;;5114744;28;20862;-51
2023/08/25 12:18:33;;;;;;;29.03;19.53;;;22.10;99.90;;;;;;5114210;28;20870;-51
2023/08/25 12:21:00;;;;;;;19.10;16.23;;;22.10;1.00;;;;;;5113410;28;20928;-51
2023/08/25 12:23:38;;;;;;;21.47;16.63;;;22.00;1.00;;;;;;5114631;28;20511;-51
2023/08/25 12:26:05;;;;;;;20.30;16.77;;;22.00;1.00;;;;;;5114933;28;20403;-51
2023/08/25 12:28:34;;;;;;;19.83;17.13;;;21.90;99.90;;;;;;5115068;28;20419;-49
2023/08/25 12:31:01;;;;;;;23.03;19.23;;;21.90;99.90;;;;;;5114514;28;20462;-50
2023/08/25 12:33:28;;;;;;;23.80;17.87;;;22.00;1.00;;;;;;5114172;28;20415;-50